Impacts TAF Board
For situational awareness. Not to be used for flight planning purposes.
IDs:

KSFO - San Francisco Intl, CA, US

Issued at 2241 UTC 18 Dec 2018
Updated at 2254 UTC 18 Dec 2018
Potential Impact None Slight Moderate High
Time2156Z 18/23Z 19/00Z 19/01Z 19/02Z 19/03Z 19/04Z 19/05Z 19/06Z 19/07Z 19/08Z 19/09Z 19/10Z 19/11Z>>
Type OBS PRVL PRVL PRVL PRVL PRVL PRVL PRVL PRVL PRVL PRVL PRVL PRVL PRVL
VIS 10 >6 >6 >6 >6 >6 >6 >6 >6 >6 >6 6 6 6
CIG 30 180 180 180 180 180 150 150 150 150 150 15 15 15
Cover BKN BKN BKN BKN BKN BKN BKN BKN BKN BKN BKN OVC OVC OVC
FltCat MVFR VFR VFR VFR VFR VFR VFR VFR VFR VFR VFR MVFR MVFR MVFR
WX -- -- -- -- -- -- -- -- -- -- -- BR BR BR
WDir 60 VRB VRB VRB VRB VRB VRB VRB VRB VRB VRB VRB VRB VRB
WSpd 5 5 5 5 5 5 4 4 4 4 4 0 0 0
WGst -- -- -- -- -- -- -- -- -- -- -- -- -- --
Raw TAF
KSFO 182241Z 1823/1924 VRB05KT P6SM FEW010 SCT030 BKN180
  FM190400 VRB04KT P6SM FEW015 BKN150
  FM190900 00000KT 6SM BR OVC015
  FM191800 VRB03KT P6SM FEW015 BKN025


Raw METAR
KSFO 182156Z 06005KT 10SM FEW010 BKN030 BKN180 14/09 A3031 RMK AO2 SLP263 T01390094
KSFO 182056Z 09004KT 10SM FEW010 FEW065 BKN180 13/09 A3032 RMK AO2 SLP267 T01280094 58013
KSFO 181956Z 08005KT 10SM FEW010 SCT065 BKN180 13/08 A3034 RMK AO2 SLP273 T01280083

METAR Board
Radar Display
Forecast Discussion
For situational awareness. Not to be used for flight planning purposes.